This is the latest recevied weather packets stored in our database for station/object N2PUI. If no packets are shown the sender has not sent any weather packets the latest 10 day(s).
| Time | Temp. | Humidity | Pressure | Rain* | Wind** | Luminosity | Snow |
|---|---|---|---|---|---|---|---|
| 1777822117 | 9.44° C | 41% | 1013.6 hPa | 0 mm | - | 826 W/m² | - |
| 1777821511 | 8.89° C | 41% | 1013.9 hPa | 0 mm | - | 881 W/m² | - |
| 1777821209 | 8.89° C | 42% | 1013.6 hPa | 0 mm | - | 891 W/m² | - |
| 1777820906 | 8.33° C | 43% | 1013.6 hPa | 0 mm | - | 909 W/m² | - |
| 1777820299 | 8.89° C | 42% | 1013.8 hPa | 0 mm | - | 842 W/m² | - |
| 1777818785 | 7.22° C | 44% | 1013.8 hPa | 0 mm | - | 815 W/m² | - |
| 1777817269 | 7.78° C | 43% | 1013.8 hPa | 0 mm | - | 705 W/m² | - |
| 1777814541 | 6.67° C | 51% | 1014 hPa | 0 mm | - | 547 W/m² | - |
| 1777813936 | 5.56° C | 54% | 1013.9 hPa | 0 mm | - | 530 W/m² | - |
| 1777811818 | 5.56° C | 62% | 1014.3 hPa | 0 mm | - | 267 W/m² | - |
| 1777811515 | 5° C | 64% | 1014.3 hPa | 0 mm | - | 290 W/m² | - |
| 1777811211 | 5° C | 64% | 1014.2 hPa | 0 mm | - | 300 W/m² | - |
| 1777810302 | 5° C | 69% | 1014.1 hPa | 0 mm | - | 244 W/m² | - |
| 1777809696 | 4.44° C | 69% | 1014.2 hPa | 0 mm | - | 137 W/m² | - |
| 1777809393 | 4.44° C | 70% | 1014.2 hPa | 0 mm | - | 137 W/m² | - |
| 1777808788 | 3.89° C | 72% | 1014.2 hPa | 0 mm | - | 111 W/m² | - |
| 1777808485 | 4.44° C | 72% | 1014.2 hPa | 0 mm | - | 87 W/m² | - |
| 1777807881 | 3.89° C | 73% | 1014 hPa | 0 mm | - | 108 W/m² | - |
| 1777806971 | 3.89° C | 75% | 1014.1 hPa | 0 mm | - | 66 W/m² | - |
| 1777806668 | 3.33° C | 75% | 1013.9 hPa | 0 mm | - | 51 W/m² | - |
| 1777806364 | 3.33° C | 75% | 1013.7 hPa | 0 mm | - | 47 W/m² | - |
| 1777806061 | 3.33° C | 75% | 1013.9 hPa | 0 mm | - | 49 W/m² | - |
| 1777805455 | 3.33° C | 75% | 1013.6 hPa | 0 mm | - | 45 W/m² | - |
| 1777805153 | 3.33° C | 75% | 1013.7 hPa | 0 mm | - | 33 W/m² | - |
| 1777804548 | 3.33° C | 75% | 1013.7 hPa | 0 mm | - | 19 W/m² | - |
* Rain latest hour (hover to see other rain measurements)
** Current wind speed in m/s (hover to see current wind gust speed)